sensor_id;sensor_type;location;lat;lon;timestamp;pressure;altitude;pressure_sealevel;temperature;humidity
16331;BME280;8275;48.206;16.340;2023-02-23T00:01:27;99046.59;;;13.41;43.89
16331;BME280;8275;48.206;16.340;2023-02-23T00:03:57;99033.97;;;13.40;43.98
16331;BME280;8275;48.206;16.340;2023-02-23T00:06:27;99037.81;;;13.38;43.83
16331;BME280;8275;48.206;16.340;2023-02-23T00:08:56;99036.19;;;13.38;44.00
16331;BME280;8275;48.206;16.340;2023-02-23T00:11:27;99036.44;;;13.36;44.00
16331;BME280;8275;48.206;16.340;2023-02-23T00:13:57;99033.97;;;13.34;43.97
16331;BME280;8275;48.206;16.340;2023-02-23T00:16:27;99039.75;;;13.33;43.99
16331;BME280;8275;48.206;16.340;2023-02-23T00:18:57;99029.03;;;13.31;44.13
16331;BME280;8275;48.206;16.340;2023-02-23T00:21:30;99032.06;;;13.30;44.11
16331;BME280;8275;48.206;16.340;2023-02-23T00:24:01;99031.78;;;13.26;44.12
16331;BME280;8275;48.206;16.340;2023-02-23T00:26:31;99035.91;;;13.24;44.20
16331;BME280;8275;48.206;16.340;2023-02-23T00:29:07;99030.16;;;13.20;44.31
16331;BME280;8275;48.206;16.340;2023-02-23T00:31:36;99035.66;;;13.20;44.38
16331;BME280;8275;48.206;16.340;2023-02-23T00:34:05;99035.94;;;13.19;44.34
16331;BME280;8275;48.206;16.340;2023-02-23T00:36:34;99029.09;;;13.16;44.22
16331;BME280;8275;48.206;16.340;2023-02-23T00:39:07;99026.59;;;13.15;44.30
16331;BME280;8275;48.206;16.340;2023-02-23T00:41:45;99029.63;;;13.13;44.13
16331;BME280;8275;48.206;16.340;2023-02-23T00:44:15;99020.00;;;13.11;44.50
16331;BME280;8275;48.206;16.340;2023-02-23T00:46:45;99028.25;;;13.11;44.47
16331;BME280;8275;48.206;16.340;2023-02-23T00:49:16;99030.47;;;13.09;44.57
16331;BME280;8275;48.206;16.340;2023-02-23T00:51:45;99026.88;;;13.08;44.58
16331;BME280;8275;48.206;16.340;2023-02-23T00:54:15;99029.09;;;13.06;44.74
16331;BME280;8275;48.206;16.340;2023-02-23T00:56:45;99017.53;;;13.04;44.43
16331;BME280;8275;48.206;16.340;2023-02-23T00:59:15;99029.91;;;13.02;44.18
16331;BME280;8275;48.206;16.340;2023-02-23T01:01:44;99027.44;;;13.00;44.56
16331;BME280;8275;48.206;16.340;2023-02-23T01:04:12;99023.03;;;12.99;44.50
16331;BME280;8275;48.206;16.340;2023-02-23T01:06:41;99026.06;;;12.98;44.72
16331;BME280;8275;48.206;16.340;2023-02-23T01:09:13;99022.75;;;12.96;44.75
16331;BME280;8275;48.206;16.340;2023-02-23T01:11:47;99017.53;;;12.94;44.78
16331;BME280;8275;48.206;16.340;2023-02-23T01:14:18;99020.56;;;12.93;44.67
16331;BME280;8275;48.206;16.340;2023-02-23T01:16:48;99015.63;;;12.90;44.67
16331;BME280;8275;48.206;16.340;2023-02-23T01:19:16;99011.22;;;12.89;45.00
16331;BME280;8275;48.206;16.340;2023-02-23T01:21:45;99007.94;;;12.87;44.74
16331;BME280;8275;48.206;16.340;2023-02-23T01:24:13;99013.44;;;12.87;44.98
16331;BME280;8275;48.206;16.340;2023-02-23T01:26:44;99012.06;;;12.84;45.10
16331;BME280;8275;48.206;16.340;2023-02-23T01:29:15;99003.28;;;12.82;44.97
16331;BME280;8275;48.206;16.340;2023-02-23T01:31:47;99007.94;;;12.82;44.94
16331;BME280;8275;48.206;16.340;2023-02-23T01:34:18;99009.03;;;12.81;45.17
16331;BME280;8275;48.206;16.340;2023-02-23T01:36:48;99004.91;;;12.78;45.06
16331;BME280;8275;48.206;16.340;2023-02-23T01:39:19;99007.13;;;12.76;45.14
16331;BME280;8275;48.206;16.340;2023-02-23T01:41:48;99008.22;;;12.75;45.25
16331;BME280;8275;48.206;16.340;2023-02-23T01:47:54;98993.13;;;12.67;45.12
16331;BME280;8275;48.206;16.340;2023-02-23T01:50:27;98999.97;;;12.65;45.43
16331;BME280;8275;48.206;16.340;2023-02-23T01:52:56;98999.16;;;12.64;45.41
16331;BME280;8275;48.206;16.340;2023-02-23T01:55:27;99002.72;;;12.65;45.23
16331;BME280;8275;48.206;16.340;2023-02-23T01:58:05;98997.53;;;12.63;45.43
16331;BME280;8275;48.206;16.340;2023-02-23T02:00:34;98988.44;;;12.63;45.50
16331;BME280;8275;48.206;16.340;2023-02-23T02:03:09;98987.63;;;12.62;45.46
16331;BME280;8275;48.206;16.340;2023-02-23T02:05:41;98986.53;;;12.63;45.48
16331;BME280;8275;48.206;16.340;2023-02-23T02:08:11;98990.38;;;12.62;45.47
16331;BME280;8275;48.206;16.340;2023-02-23T02:10:40;98988.72;;;12.61;45.52
16331;BME280;8275;48.206;16.340;2023-02-23T02:13:18;98996.41;;;12.59;45.41
16331;BME280;8275;48.206;16.340;2023-02-23T02:22:51;98984.31;;;12.50;45.66
16331;BME280;8275;48.206;16.340;2023-02-23T02:25:47;98984.91;;;12.47;45.67
16331;BME280;8275;48.206;16.340;2023-02-23T02:32:19;98987.34;;;12.44;45.70
16331;BME280;8275;48.206;16.340;2023-02-23T02:38:22;98988.19;;;12.44;45.46
16331;BME280;8275;48.206;16.340;2023-02-23T02:40:59;98980.78;;;12.45;45.81
16331;BME280;8275;48.206;16.340;2023-02-23T02:43:37;98987.09;;;12.45;45.80
16331;BME280;8275;48.206;16.340;2023-02-23T02:46:14;98984.91;;;12.47;45.86
16331;BME280;8275;48.206;16.340;2023-02-23T02:48:49;98984.59;;;12.49;45.58
16331;BME280;8275;48.206;16.340;2023-02-23T02:51:27;98978.81;;;12.50;45.82
16331;BME280;8275;48.206;16.340;2023-02-23T02:54:04;98988.72;;;12.51;45.71
16331;BME280;8275;48.206;16.340;2023-02-23T02:56:40;98988.72;;;12.51;45.64
16331;BME280;8275;48.206;16.340;2023-02-23T02:59:14;98982.94;;;12.53;45.61
16331;BME280;8275;48.206;16.340;2023-02-23T03:02:01;98987.34;;;12.54;45.83
16331;BME280;8275;48.206;16.340;2023-02-23T03:04:47;98991.72;;;12.55;45.98
16331;BME280;8275;48.206;16.340;2023-02-23T03:07:39;98995.31;;;12.55;45.98
16331;BME280;8275;48.206;16.340;2023-02-23T03:10:35;98998.59;;;12.57;46.02
16331;BME280;8275;48.206;16.340;2023-02-23T03:13:38;99001.09;;;12.59;45.79
16331;BME280;8275;48.206;16.340;2023-02-23T03:16:41;99001.63;;;12.61;45.81
16331;BME280;8275;48.206;16.340;2023-02-23T03:19:30;99000.28;;;12.63;45.83
16331;BME280;8275;48.206;16.340;2023-02-23T03:22:25;98998.91;;;12.66;45.77
16331;BME280;8275;48.206;16.340;2023-02-23T03:25:15;98996.69;;;12.68;46.09
16331;BME280;8275;48.206;16.340;2023-02-23T03:28:11;98996.13;;;12.71;46.07
16331;BME280;8275;48.206;16.340;2023-02-23T03:31:05;99004.94;;;12.73;45.93
16331;BME280;8275;48.206;16.340;2023-02-23T03:34:02;99000.78;;;12.76;46.09
16331;BME280;8275;48.206;16.340;2023-02-23T03:37:00;99006.03;;;12.77;46.00
16331;BME280;8275;48.206;16.340;2023-02-23T03:39:58;99007.66;;;12.78;45.98
16331;BME280;8275;48.206;16.340;2023-02-23T03:42:49;99001.91;;;12.80;46.03
16331;BME280;8275;48.206;16.340;2023-02-23T03:45:39;99012.59;;;12.81;45.97
16331;BME280;8275;48.206;16.340;2023-02-23T03:48:26;99011.53;;;12.82;45.75
16331;BME280;8275;48.206;16.340;2023-02-23T03:51:12;99001.31;;;12.83;45.75
16331;BME280;8275;48.206;16.340;2023-02-23T03:54:04;99015.34;;;12.81;46.12
16331;BME280;8275;48.206;16.340;2023-02-23T03:56:55;99009.03;;;12.81;45.91
16331;BME280;8275;48.206;16.340;2023-02-23T03:59:49;99007.66;;;12.78;45.96
16331;BME280;8275;48.206;16.340;2023-02-23T04:02:41;99013.97;;;12.79;45.98
16331;BME280;8275;48.206;16.340;2023-02-23T04:05:29;99014.28;;;12.77;45.96
16331;BME280;8275;48.206;16.340;2023-02-23T04:08:18;99018.09;;;12.76;46.10
16331;BME280;8275;48.206;16.340;2023-02-23T04:11:13;99021.44;;;12.73;46.12
16331;BME280;8275;48.206;16.340;2023-02-23T04:14:05;99024.19;;;12.73;45.97
16331;BME280;8275;48.206;16.340;2023-02-23T04:16:35;99014.28;;;12.72;45.97
16331;BME280;8275;48.206;16.340;2023-02-23T04:19:05;99022.50;;;12.72;46.24
16331;BME280;8275;48.206;16.340;2023-02-23T04:21:34;99017.84;;;12.73;46.08
16331;BME280;8275;48.206;16.340;2023-02-23T04:24:03;99019.78;;;12.72;46.26
16331;BME280;8275;48.206;16.340;2023-02-23T04:26:31;99017.03;;;12.72;46.24
16331;BME280;8275;48.206;16.340;2023-02-23T04:28:59;99024.44;;;12.72;46.32
16331;BME280;8275;48.206;16.340;2023-02-23T04:31:28;99019.78;;;12.72;46.49
16331;BME280;8275;48.206;16.340;2023-02-23T04:33:56;99020.84;;;12.71;46.28
16331;BME280;8275;48.206;16.340;2023-02-23T04:36:26;99019.78;;;12.72;46.10
16331;BME280;8275;48.206;16.340;2023-02-23T04:38:55;99020.84;;;12.71;46.25
16331;BME280;8275;48.206;16.340;2023-02-23T04:41:23;99019.22;;;12.70;46.42
16331;BME280;8275;48.206;16.340;2023-02-23T04:43:51;99029.66;;;12.68;46.28
16331;BME280;8275;48.206;16.340;2023-02-23T04:46:20;99029.13;;;12.66;46.12
16331;BME280;8275;48.206;16.340;2023-02-23T04:48:48;99027.47;;;12.65;46.03
16331;BME280;8275;48.206;16.340;2023-02-23T04:51:17;99027.75;;;12.63;46.14
16331;BME280;8275;48.206;16.340;2023-02-23T04:53:47;99022.50;;;12.62;46.58
16331;BME280;8275;48.206;16.340;2023-02-23T04:56:15;99020.88;;;12.61;46.39
16331;BME280;8275;48.206;16.340;2023-02-23T04:58:44;99018.38;;;12.59;46.32
16331;BME280;8275;48.206;16.340;2023-02-23T05:01:12;99028.56;;;12.59;46.36
16331;BME280;8275;48.206;16.340;2023-02-23T05:03:41;99027.75;;;12.58;46.61
16331;BME280;8275;48.206;16.340;2023-02-23T05:06:10;99024.44;;;12.56;46.59
16331;BME280;8275;48.206;16.340;2023-02-23T05:08:39;99018.13;;;12.56;46.53
16331;BME280;8275;48.206;16.340;2023-02-23T05:11:09;99019.22;;;12.55;46.38
16331;BME280;8275;48.206;16.340;2023-02-23T05:13:38;99012.63;;;12.56;46.65
16331;BME280;8275;48.206;16.340;2023-02-23T05:16:07;99017.59;;;12.54;46.67
16331;BME280;8275;48.206;16.340;2023-02-23T05:18:36;99020.59;;;12.52;46.44
16331;BME280;8275;48.206;16.340;2023-02-23T05:21:06;99026.06;;;12.52;46.80
16331;BME280;8275;48.206;16.340;2023-02-23T05:23:36;99025.53;;;12.50;46.71
16331;BME280;8275;48.206;16.340;2023-02-23T05:26:09;99025.00;;;12.48;46.60
16331;BME280;8275;48.206;16.340;2023-02-23T05:28:40;99014.28;;;12.47;46.44
16331;BME280;8275;48.206;16.340;2023-02-23T05:31:09;99027.19;;;12.46;46.66
16331;BME280;8275;48.206;16.340;2023-02-23T05:33:38;99029.09;;;12.46;46.49
16331;BME280;8275;48.206;16.340;2023-02-23T05:36:10;99026.94;;;12.43;46.84
16331;BME280;8275;48.206;16.340;2023-02-23T05:38:39;99030.75;;;12.42;46.60
16331;BME280;8275;48.206;16.340;2023-02-23T05:41:11;99032.13;;;12.39;46.91
16331;BME280;8275;48.206;16.340;2023-02-23T05:43:40;99029.38;;;12.39;46.83
16331;BME280;8275;48.206;16.340;2023-02-23T05:46:10;99034.88;;;12.39;46.94
16331;BME280;8275;48.206;16.340;2023-02-23T05:48:39;99027.72;;;12.43;46.93
16331;BME280;8275;48.206;16.340;2023-02-23T05:51:12;99041.75;;;12.47;47.13
16331;BME280;8275;48.206;16.340;2023-02-23T05:53:41;99044.22;;;12.53;47.19
16331;BME280;8275;48.206;16.340;2023-02-23T05:56:13;99048.63;;;12.59;47.04
16331;BME280;8275;48.206;16.340;2023-02-23T05:58:44;99041.75;;;12.67;47.04
16331;BME280;8275;48.206;16.340;2023-02-23T06:01:12;99047.78;;;12.74;47.03
16331;BME280;8275;48.206;16.340;2023-02-23T06:03:41;99042.84;;;12.81;47.20
16331;BME280;8275;48.206;16.340;2023-02-23T06:06:09;99049.97;;;12.87;47.01
16331;BME280;8275;48.206;16.340;2023-02-23T06:08:38;99053.00;;;12.96;47.17
16331;BME280;8275;48.206;16.340;2023-02-23T06:11:07;99052.72;;;13.02;46.98
16331;BME280;8275;48.206;16.340;2023-02-23T06:13:37;99059.06;;;13.08;47.04
16331;BME280;8275;48.206;16.340;2023-02-23T06:16:07;99059.06;;;13.13;47.03
16331;BME280;8275;48.206;16.340;2023-02-23T06:18:35;99063.72;;;13.17;46.94
16331;BME280;8275;48.206;16.340;2023-02-23T06:21:04;99061.25;;;13.21;47.07
16331;BME280;8275;48.206;16.340;2023-02-23T06:23:33;99068.09;;;13.28;47.00
16331;BME280;8275;48.206;16.340;2023-02-23T06:26:01;99071.66;;;13.34;46.86
16331;BME280;8275;48.206;16.340;2023-02-23T06:28:30;99075.78;;;13.42;46.67
16331;BME280;8275;48.206;16.340;2023-02-23T06:31:00;99073.28;;;13.45;46.73
16331;BME280;8275;48.206;16.340;2023-02-23T06:33:29;99074.34;;;13.49;46.65
16331;BME280;8275;48.206;16.340;2023-02-23T06:35:57;99079.31;;;13.52;46.67
16331;BME280;8275;48.206;16.340;2023-02-23T06:38:26;99073.81;;;13.57;46.58
16331;BME280;8275;48.206;16.340;2023-02-23T06:40:54;99081.22;;;13.62;46.52
16331;BME280;8275;48.206;16.340;2023-02-23T06:43:23;99074.88;;;13.66;46.41
16331;BME280;8275;48.206;16.340;2023-02-23T06:45:51;99086.69;;;13.72;46.34
16331;BME280;8275;48.206;16.340;2023-02-23T06:48:21;99083.09;;;13.76;46.22
16331;BME280;8275;48.206;16.340;2023-02-23T06:50:49;99084.72;;;13.77;46.36
16331;BME280;8275;48.206;16.340;2023-02-23T06:53:18;99084.16;;;13.80;46.22
16331;BME280;8275;48.206;16.340;2023-02-23T06:55:48;99084.72;;;13.82;46.31
16331;BME280;8275;48.206;16.340;2023-02-23T06:58:16;99092.13;;;13.87;46.29
16331;BME280;8275;48.206;16.340;2023-02-23T07:00:45;99086.06;;;13.90;46.13
16331;BME280;8275;48.206;16.340;2023-02-23T07:03:13;99088.81;;;13.95;46.17
16331;BME280;8275;48.206;16.340;2023-02-23T07:05:43;99096.47;;;13.98;46.03
16331;BME280;8275;48.206;16.340;2023-02-23T07:08:11;99089.03;;;14.03;45.97
16331;BME280;8275;48.206;16.340;2023-02-23T07:10:40;99094.50;;;14.08;45.87
16331;BME280;8275;48.206;16.340;2023-02-23T07:13:08;99089.78;;;14.14;45.82
16331;BME280;8275;48.206;16.340;2023-02-23T07:15:40;99096.41;;;14.18;45.65
16331;BME280;8275;48.206;16.340;2023-02-23T07:18:08;99093.66;;;14.18;45.59
16331;BME280;8275;48.206;16.340;2023-02-23T07:20:37;99091.41;;;14.20;45.61
16331;BME280;8275;48.206;16.340;2023-02-23T07:23:06;99097.47;;;14.22;45.58
16331;BME280;8275;48.206;16.340;2023-02-23T07:25:35;99095.25;;;14.24;45.52
16331;BME280;8275;48.206;16.340;2023-02-23T07:28:04;99098.53;;;14.26;45.45
16331;BME280;8275;48.206;16.340;2023-02-23T07:30:32;99100.19;;;14.27;45.51
16331;BME280;8275;48.206;16.340;2023-02-23T07:33:00;99101.56;;;14.30;45.55
16331;BME280;8275;48.206;16.340;2023-02-23T07:35:29;99099.09;;;14.33;45.49
16331;BME280;8275;48.206;16.340;2023-02-23T07:37:57;99098.22;;;14.38;45.25
16331;BME280;8275;48.206;16.340;2023-02-23T07:40:27;99103.97;;;14.41;45.17
16331;BME280;8275;48.206;16.340;2023-02-23T07:42:56;99100.09;;;14.47;45.09
16331;BME280;8275;48.206;16.340;2023-02-23T07:45:24;99097.84;;;14.54;45.27
16331;BME280;8275;48.206;16.340;2023-02-23T07:47:53;99113.50;;;14.64;45.06
16331;BME280;8275;48.206;16.340;2023-02-23T07:50:21;99110.69;;;14.69;45.07
16331;BME280;8275;48.206;16.340;2023-02-23T07:52:50;99101.28;;;14.75;44.91
16331;BME280;8275;48.206;16.340;2023-02-23T07:55:18;99108.13;;;14.83;44.91
16331;BME280;8275;48.206;16.340;2023-02-23T07:57:49;99107.50;;;14.91;44.73
16331;BME280;8275;48.206;16.340;2023-02-23T08:00:19;99109.03;;;15.02;44.75
16331;BME280;8275;48.206;16.340;2023-02-23T08:02:47;99113.34;;;15.13;44.69
16331;BME280;8275;48.206;16.340;2023-02-23T08:05:16;99116.03;;;15.23;44.59
16331;BME280;8275;48.206;16.340;2023-02-23T08:07:44;99111.22;;;15.33;44.48
16331;BME280;8275;48.206;16.340;2023-02-23T08:10:13;99110.91;;;15.40;44.30
16331;BME280;8275;48.206;16.340;2023-02-23T08:12:41;99108.94;;;15.40;44.02
16331;BME280;8275;48.206;16.340;2023-02-23T08:15:12;99115.88;;;15.38;44.04
16331;BME280;8275;48.206;16.340;2023-02-23T08:17:40;99108.72;;;15.37;44.07
16331;BME280;8275;48.206;16.340;2023-02-23T08:20:10;99116.97;;;15.42;43.83
16331;BME280;8275;48.206;16.340;2023-02-23T08:22:39;99111.34;;;15.52;43.86
16331;BME280;8275;48.206;16.340;2023-02-23T08:25:16;99111.47;;;15.66;43.85
16331;BME280;8275;48.206;16.340;2023-02-23T08:27:45;99112.94;;;15.82;43.98
16331;BME280;8275;48.206;16.340;2023-02-23T08:30:16;99109.19;;;15.96;43.69
16331;BME280;8275;48.206;16.340;2023-02-23T08:32:45;99112.28;;;16.13;43.48
16331;BME280;8275;48.206;16.340;2023-02-23T08:35:15;99122.09;;;16.25;43.37
16331;BME280;8275;48.206;16.340;2023-02-23T08:37:44;99120.88;;;16.31;42.70
16331;BME280;8275;48.206;16.340;2023-02-23T08:40:13;99120.69;;;16.27;42.55
16331;BME280;8275;48.206;16.340;2023-02-23T08:42:44;99116.56;;;16.25;42.55
16331;BME280;8275;48.206;16.340;2023-02-23T08:45:16;99116.63;;;16.20;42.55
16331;BME280;8275;48.206;16.340;2023-02-23T08:47:44;99117.81;;;16.13;42.65
16331;BME280;8275;48.206;16.340;2023-02-23T08:50:13;99117.06;;;16.08;42.65
16331;BME280;8275;48.206;16.340;2023-02-23T08:52:42;99112.94;;;16.05;42.72
16331;BME280;8275;48.206;16.340;2023-02-23T08:55:10;99116.22;;;16.07;42.63
16331;BME280;8275;48.206;16.340;2023-02-23T08:57:39;99117.88;;;16.08;42.74
16331;BME280;8275;48.206;16.340;2023-02-23T09:00:10;99118.09;;;16.12;42.58
16331;BME280;8275;48.206;16.340;2023-02-23T09:02:45;99118.34;;;16.15;42.44
16331;BME280;8275;48.206;16.340;2023-02-23T09:05:15;99117.72;;;16.18;42.55
16331;BME280;8275;48.206;16.340;2023-02-23T09:07:46;99114.38;;;16.22;42.41
16331;BME280;8275;48.206;16.340;2023-02-23T09:12:47;99125.84;;;16.34;42.51
16331;BME280;8275;48.206;16.340;2023-02-23T09:15:15;99123.22;;;16.42;42.23
16331;BME280;8275;48.206;16.340;2023-02-23T09:17:46;99116.53;;;16.48;42.27
16331;BME280;8275;48.206;16.340;2023-02-23T09:20:16;99131.41;;;16.52;42.16
16331;BME280;8275;48.206;16.340;2023-02-23T09:22:45;99119.22;;;16.53;41.92
16331;BME280;8275;48.206;16.340;2023-02-23T09:25:16;99120.03;;;16.54;41.98
16331;BME280;8275;48.206;16.340;2023-02-23T09:27:50;99125.88;;;16.52;41.94
16331;BME280;8275;48.206;16.340;2023-02-23T09:30:19;99121.97;;;16.53;41.90
16331;BME280;8275;48.206;16.340;2023-02-23T09:32:50;99127.75;;;16.57;42.02
16331;BME280;8275;48.206;16.340;2023-02-23T09:35:22;99113.22;;;16.65;41.84
16331;BME280;8275;48.206;16.340;2023-02-23T09:37:54;99122.28;;;16.70;41.67
16331;BME280;8275;48.206;16.340;2023-02-23T09:40:26;99112.50;;;16.78;41.74
16331;BME280;8275;48.206;16.340;2023-02-23T09:43:00;99120.09;;;16.86;41.47
16331;BME280;8275;48.206;16.340;2023-02-23T09:45:37;99113.38;;;16.92;41.45
16331;BME280;8275;48.206;16.340;2023-02-23T09:48:17;99119.88;;;17.01;41.36
16331;BME280;8275;48.206;16.340;2023-02-23T09:50:49;99121.44;;;17.07;41.33
16331;BME280;8275;48.206;16.340;2023-02-23T09:53:36;99115.88;;;17.07;41.13
16331;BME280;8275;48.206;16.340;2023-02-23T09:56:13;99116.63;;;17.13;41.03
16331;BME280;8275;48.206;16.340;2023-02-23T09:58:43;99111.00;;;17.18;40.95
16331;BME280;8275;48.206;16.340;2023-02-23T10:01:52;99119.00;;;17.19;41.09
16331;BME280;8275;48.206;16.340;2023-02-23T10:04:28;99121.69;;;17.24;40.97
16331;BME280;8275;48.206;16.340;2023-02-23T10:07:01;99116.56;;;17.31;40.81
16331;BME280;8275;48.206;16.340;2023-02-23T10:09:47;99120.91;;;17.37;40.83
16331;BME280;8275;48.206;16.340;2023-02-23T10:12:29;99109.09;;;17.45;40.62
16331;BME280;8275;48.206;16.340;2023-02-23T10:15:17;99109.34;;;17.49;40.60
16331;BME280;8275;48.206;16.340;2023-02-23T10:17:59;99115.00;;;17.58;40.65
16331;BME280;8275;48.206;16.340;2023-02-23T10:20:44;99107.84;;;17.57;40.49
16331;BME280;8275;48.206;16.340;2023-02-23T10:23:18;99110.63;;;17.57;40.47
16331;BME280;8275;48.206;16.340;2023-02-23T10:25:49;99110.31;;;17.58;40.35
16331;BME280;8275;48.206;16.340;2023-02-23T10:28:20;99108.66;;;17.57;40.48
16331;BME280;8275;48.206;16.340;2023-02-23T10:30:50;99110.00;;;17.60;40.32
16331;BME280;8275;48.206;16.340;2023-02-23T10:33:24;99104.88;;;17.67;40.30
16331;BME280;8275;48.206;16.340;2023-02-23T10:36:07;99106.03;;;17.79;40.32
16331;BME280;8275;48.206;16.340;2023-02-23T10:38:40;99098.81;;;17.92;40.20
16331;BME280;8275;48.206;16.340;2023-02-23T10:41:09;99095.94;;;17.97;40.00
16331;BME280;8275;48.206;16.340;2023-02-23T10:43:41;99096.78;;;17.97;39.75
16331;BME280;8275;48.206;16.340;2023-02-23T10:46:13;99087.94;;;17.95;39.89
16331;BME280;8275;48.206;16.340;2023-02-23T10:48:45;99089.47;;;18.01;39.86
16331;BME280;8275;48.206;16.340;2023-02-23T10:51:21;99085.28;;;18.04;39.84
16331;BME280;8275;48.206;16.340;2023-02-23T10:53:51;99083.22;;;18.09;39.74
16331;BME280;8275;48.206;16.340;2023-02-23T10:56:20;99082.78;;;18.16;39.77
16331;BME280;8275;48.206;16.340;2023-02-23T10:58:52;99074.03;;;18.36;39.75
16331;BME280;8275;48.206;16.340;2023-02-23T11:01:35;99071.59;;;18.70;39.72
16331;BME280;8275;48.206;16.340;2023-02-23T11:04:25;99069.94;;;19.14;39.21
16331;BME280;8275;48.206;16.340;2023-02-23T11:07:08;99061.81;;;19.48;38.95
16331;BME280;8275;48.206;16.340;2023-02-23T11:09:43;99063.75;;;19.78;38.54
16331;BME280;8275;48.206;16.340;2023-02-23T11:12:20;99062.84;;;19.91;37.95
16331;BME280;8275;48.206;16.340;2023-02-23T11:14:51;99061.19;;;19.99;37.74
16331;BME280;8275;48.206;16.340;2023-02-23T11:17:29;99053.53;;;19.96;37.69
16331;BME280;8275;48.206;16.340;2023-02-23T11:20:03;99060.06;;;19.91;37.54
16331;BME280;8275;48.206;16.340;2023-02-23T11:22:36;99057.09;;;19.88;37.61
16331;BME280;8275;48.206;16.340;2023-02-23T11:25:16;99052.00;;;19.90;37.68
16331;BME280;8275;48.206;16.340;2023-02-23T11:27:49;99045.84;;;20.01;37.64
16331;BME280;8275;48.206;16.340;2023-02-23T11:30:21;99038.66;;;20.17;37.64
16331;BME280;8275;48.206;16.340;2023-02-23T11:32:53;99032.84;;;20.45;37.47
16331;BME280;8275;48.206;16.340;2023-02-23T11:35:29;99032.34;;;20.85;37.33
16331;BME280;8275;48.206;16.340;2023-02-23T11:38:16;99027.53;;;21.29;37.01
16331;BME280;8275;48.206;16.340;2023-02-23T11:40:59;99026.34;;;21.76;36.55
16331;BME280;8275;48.206;16.340;2023-02-23T11:43:28;99019.41;;;22.20;35.85
16331;BME280;8275;48.206;16.340;2023-02-23T11:45:59;99012.91;;;22.78;35.27
16331;BME280;8275;48.206;16.340;2023-02-23T11:48:33;99013.59;;;23.40;34.67
16331;BME280;8275;48.206;16.340;2023-02-23T11:51:04;99008.13;;;23.92;33.86
16331;BME280;8275;48.206;16.340;2023-02-23T11:53:36;99000.06;;;24.39;33.30
16331;BME280;8275;48.206;16.340;2023-02-23T11:56:07;98990.63;;;24.71;32.87
16331;BME280;8275;48.206;16.340;2023-02-23T11:58:41;98989.63;;;24.91;32.33
16331;BME280;8275;48.206;16.340;2023-02-23T12:01:14;98987.09;;;25.30;31.83
16331;BME280;8275;48.206;16.340;2023-02-23T12:03:47;98986.22;;;25.72;31.56
16331;BME280;8275;48.206;16.340;2023-02-23T12:06:28;98977.75;;;26.19;31.53
16331;BME280;8275;48.206;16.340;2023-02-23T12:09:05;98979.50;;;26.62;30.82
16331;BME280;8275;48.206;16.340;2023-02-23T12:11:42;98976.03;;;26.88;30.00
16331;BME280;8275;48.206;16.340;2023-02-23T12:14:25;98977.63;;;27.08;29.68
16331;BME280;8275;48.206;16.340;2023-02-23T12:17:01;98973.88;;;27.42;29.25
16331;BME280;8275;48.206;16.340;2023-02-23T12:19:35;98964.81;;;27.75;29.19
16331;BME280;8275;48.206;16.340;2023-02-23T12:22:10;98969.06;;;28.14;28.51
16331;BME280;8275;48.206;16.340;2023-02-23T12:24:46;98963.25;;;28.30;28.00
16331;BME280;8275;48.206;16.340;2023-02-23T12:27:21;98966.44;;;28.25;27.43
16331;BME280;8275;48.206;16.340;2023-02-23T12:30:04;98966.16;;;28.07;27.88
16331;BME280;8275;48.206;16.340;2023-02-23T12:32:45;98963.63;;;27.76;27.52
16331;BME280;8275;48.206;16.340;2023-02-23T12:35:21;98962.28;;;27.44;27.62
16331;BME280;8275;48.206;16.340;2023-02-23T12:37:59;98958.31;;;27.26;27.88
16331;BME280;8275;48.206;16.340;2023-02-23T12:40:34;98955.41;;;27.22;27.48
16331;BME280;8275;48.206;16.340;2023-02-23T12:43:11;98948.91;;;27.37;28.01
16331;BME280;8275;48.206;16.340;2023-02-23T12:45:48;98948.94;;;27.63;27.52
16331;BME280;8275;48.206;16.340;2023-02-23T12:48:30;98941.22;;;27.83;27.26
16331;BME280;8275;48.206;16.340;2023-02-23T12:51:05;98934.47;;;27.88;27.32
16331;BME280;8275;48.206;16.340;2023-02-23T12:53:41;98930.59;;;27.73;27.30
16331;BME280;8275;48.206;16.340;2023-02-23T12:56:34;98935.53;;;27.53;27.13
16331;BME280;8275;48.206;16.340;2023-02-23T13:02:24;98926.84;;;27.65;26.86
16331;BME280;8275;48.206;16.340;2023-02-23T13:05:22;98916.53;;;27.73;27.16
16331;BME280;8275;48.206;16.340;2023-02-23T13:08:02;98928.81;;;27.88;26.92
16331;BME280;8275;48.206;16.340;2023-02-23T13:10:49;98924.88;;;27.92;26.66
16331;BME280;8275;48.206;16.340;2023-02-23T13:13:32;98917.84;;;28.05;26.79
16331;BME280;8275;48.206;16.340;2023-02-23T13:16:10;98917.28;;;27.96;26.39
16331;BME280;8275;48.206;16.340;2023-02-23T13:18:47;98916.03;;;27.67;26.48
16331;BME280;8275;48.206;16.340;2023-02-23T13:21:23;98919.56;;;27.38;26.75
16331;BME280;8275;48.206;16.340;2023-02-23T13:23:58;98928.78;;;27.16;26.34
16331;BME280;8275;48.206;16.340;2023-02-23T13:26:35;98922.38;;;26.96;26.22
16331;BME280;8275;48.206;16.340;2023-02-23T13:29:18;98920.66;;;26.88;26.44
16331;BME280;8275;48.206;16.340;2023-02-23T13:31:52;98923.69;;;26.80;26.67
16331;BME280;8275;48.206;16.340;2023-02-23T13:34:25;98915.81;;;26.70;26.28
16331;BME280;8275;48.206;16.340;2023-02-23T13:36:56;98917.63;;;26.59;26.57
16331;BME280;8275;48.206;16.340;2023-02-23T13:39:51;98923.34;;;26.27;26.47
16331;BME280;8275;48.206;16.340;2023-02-23T13:42:35;98921.47;;;25.81;26.79
16331;BME280;8275;48.206;16.340;2023-02-23T13:45:26;98926.13;;;25.27;27.09
16331;BME280;8275;48.206;16.340;2023-02-23T13:48:05;98929.78;;;24.84;27.51
16331;BME280;8275;48.206;16.340;2023-02-23T13:50:46;98925.28;;;24.39;27.83
16331;BME280;8275;48.206;16.340;2023-02-23T13:53:39;98927.13;;;23.96;28.23
16331;BME280;8275;48.206;16.340;2023-02-23T13:56:10;98935.53;;;23.71;28.23
16331;BME280;8275;48.206;16.340;2023-02-23T13:58:47;98935.53;;;23.47;28.72
16331;BME280;8275;48.206;16.340;2023-02-23T14:01:27;98929.56;;;23.25;28.69